Time;durP1;ratioP1;P1;durP2;ratioP2;P2;SDS_P1;SDS_P2;PMS_P1;PMS_P2;Temp;Humidity;BMP_temperature;BMP_pressure;BME280_temperature;BME280_humidity;BME280_pressure;Samples;Min_cycle;Max_cycle;Signal;HPM_P1;HPM_P2
2024/04/19 00:01:45;;;;;;;3.30;2.00;;;;;;;3.42;74.11;94243.66;5457283;26;20432;-64
2024/04/19 00:04:10;;;;;;;3.65;2.00;;;;;;;3.42;74.27;94244.47;5501725;26;19994;-64
2024/04/19 00:06:35;;;;;;;3.20;2.45;;;;;;;3.40;73.40;94254.03;5492721;26;20001;-64
2024/04/19 00:09:01;;;;;;;2.88;2.20;;;;;;;3.35;74.07;94235.53;5433414;26;20353;-64
2024/04/19 00:11:26;;;;;;;2.97;2.10;;;;;;;3.19;75.32;94248.50;5494339;26;20001;-64
2024/04/19 00:13:52;;;;;;;2.60;2.17;;;;;;;3.29;74.82;94251.31;5493046;26;19998;-64
2024/04/19 00:16:17;;;;;;;3.42;2.15;;;;;;;3.46;74.20;94251.06;5461973;26;20069;-64
2024/04/19 00:18:43;;;;;;;3.22;2.40;;;;;;;3.41;73.59;94247.16;5526004;26;19998;-64
2024/04/19 00:21:08;;;;;;;4.85;2.65;;;;;;;3.29;73.32;94251.31;5493419;25;20026;-64
2024/04/19 00:23:35;;;;;;;3.40;2.08;;;;;;;3.14;73.28;94246.22;5492021;26;19997;-64
2024/04/19 00:26:00;;;;;;;3.03;2.33;;;;;;;3.37;74.02;94251.63;5493977;26;19990;-64
2024/04/19 00:28:27;;;;;;;3.35;2.30;;;;;;;3.47;73.99;94249.31;5526181;26;20364;-64
2024/04/19 00:30:55;;;;;;;2.75;2.30;;;;;;;3.28;74.18;94252.22;5493344;26;20061;-64
2024/04/19 00:33:21;;;;;;;3.03;2.47;;;;;;;3.44;73.97;94258.03;5462111;26;20439;-64
2024/04/19 00:35:46;;;;;;;4.03;3.00;;;;;;;3.27;73.62;94230.88;5493770;26;19989;-64
2024/04/19 00:38:12;;;;;;;3.70;2.80;;;;;;;3.32;73.16;94254.50;5524838;26;20358;-64
2024/04/19 00:40:37;;;;;;;3.72;2.67;;;;;;;3.28;74.67;94257.34;5526019;26;20001;-64
2024/04/19 00:43:03;;;;;;;4.28;3.20;;;;;;;3.26;74.74;94249.78;5511550;26;20005;-64
2024/04/19 00:45:35;;;;;;;4.25;2.60;;;;;;;3.17;74.89;94257.22;5492990;26;20508;-64
2024/04/19 00:48:15;;;;;;;3.80;2.90;;;;;;;2.93;75.47;94265.53;5463134;26;19989;-64
2024/04/19 00:50:41;;;;;;;3.90;2.67;;;;;;;2.74;74.86;94262.44;5489585;26;20485;-64
2024/04/19 00:53:07;;;;;;;3.78;2.88;;;;;;;2.74;75.04;94263.25;5457769;26;19997;-64
2024/04/19 00:55:32;;;;;;;3.72;2.95;;;;;;;2.74;75.44;94260.69;5525548;26;20319;-64
2024/04/19 00:57:59;;;;;;;3.38;2.72;;;;;;;2.63;75.97;94251.09;5525209;25;19989;-64
2024/04/19 01:00:25;;;;;;;3.72;2.95;;;;;;;2.51;76.31;94261.25;5477495;26;20013;-64
2024/04/19 01:02:54;;;;;;;3.30;2.67;;;;;;;2.58;76.64;94265.91;5426715;26;19990;-65
2024/04/19 01:05:20;;;;;;;4.13;2.75;;;;;;;2.72;76.04;94261.69;5397440;26;20000;-64
2024/04/19 01:07:46;;;;;;;3.20;2.72;;;;;;;2.49;76.90;94278.47;5456500;26;19994;-64
2024/04/19 01:10:11;;;;;;;3.42;2.63;;;;;;;2.72;76.95;94277.09;5451511;26;19993;-64
2024/04/19 01:12:36;;;;;;;3.60;2.83;;;;;;;2.71;76.90;94270.31;5493026;26;20029;-64
2024/04/19 01:15:02;;;;;;;3.95;2.70;;;;;;;2.44;77.28;94274.44;5525256;26;20083;-64
2024/04/19 01:17:27;;;;;;;3.83;2.65;;;;;;;2.55;77.78;94268.66;5461614;26;20533;-64
2024/04/19 01:19:53;;;;;;;3.47;2.85;;;;;;;2.53;77.54;94259.41;5461518;26;20458;-64
2024/04/19 01:22:18;;;;;;;4.32;2.90;;;;;;;2.59;77.11;94275.28;5492507;26;19994;-64
2024/04/19 01:24:45;;;;;;;3.58;2.90;;;;;;;2.66;76.99;94255.19;5462403;26;20005;-64
2024/04/19 01:27:10;;;;;;;3.67;2.67;;;;;;;2.72;76.71;94261.69;5513288;26;20336;-64
2024/04/19 01:29:39;;;;;;;3.72;2.88;;;;;;;2.24;77.66;94233.78;5456016;26;19986;-64
2024/04/19 01:32:04;;;;;;;3.80;3.03;;;;;;;2.63;77.14;94271.59;5456107;26;20369;-64
2024/04/19 01:34:30;;;;;;;3.85;3.03;;;;;;;2.67;76.73;94247.44;5435854;26;20005;-64
2024/04/19 01:36:55;;;;;;;3.28;2.90;;;;;;;2.65;76.91;94259.50;5460699;26;20471;-64
2024/04/19 01:39:21;;;;;;;4.20;2.88;;;;;;;2.43;76.76;94265.09;5462443;26;20026;-64
2024/04/19 01:41:46;;;;;;;3.78;3.05;;;;;;;2.55;76.62;94272.97;5491457;26;19994;-64
2024/04/19 01:44:12;;;;;;;5.05;3.30;;;;;;;2.45;76.54;94265.00;5524777;26;20000;-64
2024/04/19 01:46:38;;;;;;;3.85;3.17;;;;;;;2.59;76.05;94279.56;5432655;26;19998;-64
2024/04/19 01:49:03;;;;;;;4.10;3.08;;;;;;;2.53;75.94;94275.63;5488122;26;19998;-64
2024/04/19 01:51:29;;;;;;;3.30;2.80;;;;;;;2.60;76.04;94282.03;5518525;26;19997;-64
2024/04/19 01:53:54;;;;;;;5.28;3.60;;;;;;;2.66;76.07;94288.53;5458006;26;20023;-64
2024/04/19 01:56:19;;;;;;;4.43;3.08;;;;;;;2.56;76.17;94292.56;5491588;26;20442;-64
2024/04/19 01:58:45;;;;;;;3.47;2.75;;;;;;;2.67;76.22;94288.47;5504811;26;20030;-64
2024/04/19 02:01:10;;;;;;;3.40;2.63;;;;;;;2.85;74.17;94286.50;5528213;26;20001;-64
2024/04/19 02:03:38;;;;;;;2.97;2.50;;;;;;;2.79;73.94;94280.94;5494449;26;20484;-64
2024/04/19 02:06:11;;;;;;;3.10;2.60;;;;;;;2.84;74.75;94284.03;5465123;26;19997;-64
2024/04/19 02:08:36;;;;;;;3.38;2.40;;;;;;;2.83;74.17;94272.94;5466306;26;20073;-64
2024/04/19 02:11:05;;;;;;;7.05;4.65;;;;;;;2.79;74.66;94291.22;5495625;26;20475;-64
2024/04/19 02:13:30;;;;;;;21.95;11.68;;;;;;;2.59;75.42;94306.06;5427980;26;20009;-64
2024/04/19 02:15:56;;;;;;;9.38;6.03;;;;;;;2.36;76.78;94304.00;5458893;26;19986;-64
2024/04/19 02:18:22;;;;;;;7.03;4.65;;;;;;;2.47;76.42;94293.94;5448252;26;20001;-64
2024/04/19 02:20:47;;;;;;;5.40;3.78;;;;;;;2.31;75.47;94258.13;5494965;26;20022;-64
2024/04/19 02:23:13;;;;;;;4.43;3.05;;;;;;;2.41;76.24;94297.69;5491579;25;20476;-64
2024/04/19 02:25:38;;;;;;;4.00;3.10;;;;;;;2.52;76.25;94299.63;5491158;26;19990;-64
2024/04/19 02:30:59;;;;;;;3.60;2.50;;;;;;;2.46;74.58;94302.56;5514522;26;20005;-64
2024/04/19 02:33:25;;;;;;;3.13;2.30;;;;;;;2.47;74.32;94307.59;5471771;26;19997;-64
2024/04/19 02:35:50;;;;;;;2.85;2.25;;;;;;;2.44;74.19;94300.06;5527116;26;20013;-64
2024/04/19 02:38:16;;;;;;;4.18;2.50;;;;;;;2.43;74.06;94310.44;5527211;25;19998;-64
2024/04/19 02:40:41;;;;;;;2.90;2.13;;;;;;;2.47;73.89;94306.75;5493175;26;19993;-64
2024/04/19 02:43:07;;;;;;;3.38;2.40;;;;;;;2.47;73.51;94306.75;5494743;26;20030;-64
2024/04/19 02:45:43;;;;;;;2.80;2.30;;;;;;;2.43;73.58;94302.75;5527715;26;20004;-64
2024/04/19 02:48:09;;;;;;;4.32;2.40;;;;;;;2.37;73.90;94305.69;5526331;26;20013;-64
2024/04/19 02:50:34;;;;;;;4.32;2.40;;;;;;;2.49;73.64;94304.13;5525351;26;19993;-64
2024/04/19 02:52:59;;;;;;;3.10;2.17;;;;;;;2.51;73.31;94308.25;5494297;26;20029;-64
2024/04/19 02:55:26;;;;;;;2.90;2.10;;;;;;;2.46;72.88;94302.56;5494690;26;20065;-64
2024/04/19 02:57:51;;;;;;;3.10;2.25;;;;;;;2.48;73.17;94311.00;5461832;26;20001;-64
2024/04/19 03:00:17;;;;;;;2.60;2.10;;;;;;;2.45;72.85;94298.34;5464882;26;20004;-64
2024/04/19 03:02:42;;;;;;;2.75;2.22;;;;;;;2.53;72.83;94306.41;5464439;26;20022;-64
2024/04/19 03:05:07;;;;;;;2.60;2.13;;;;;;;2.45;73.05;94304.31;5526537;26;20514;-64
2024/04/19 03:07:33;;;;;;;3.35;2.30;;;;;;;2.41;73.06;94294.31;5491981;26;20053;-64
2024/04/19 03:09:58;;;;;;;2.70;2.22;;;;;;;2.45;73.28;94306.88;5464404;26;20336;-64
2024/04/19 03:12:24;;;;;;;5.50;2.53;;;;;;;2.62;72.97;94293.03;5494223;26;20330;-64
2024/04/19 03:14:49;;;;;;;3.35;2.30;;;;;;;2.63;72.72;94297.25;5526964;26;20005;-64
2024/04/19 03:17:14;;;;;;;2.60;2.05;;;;;;;2.57;73.42;94299.38;5496566;26;19998;-64
2024/04/19 03:19:40;;;;;;;3.30;2.53;;;;;;;2.63;73.17;94306.69;5490114;26;20467;-63
2024/04/19 03:22:05;;;;;;;3.45;2.35;;;;;;;2.54;73.66;94307.25;5490245;26;19990;-64
2024/04/19 03:24:31;;;;;;;3.45;2.38;;;;;;;2.35;73.83;94310.06;5457263;26;20001;-64
2024/04/19 03:26:56;;;;;;;2.75;2.15;;;;;;;2.43;73.29;94306.13;5492391;26;20026;-64
2024/04/19 03:29:22;;;;;;;3.22;2.40;;;;;;;2.40;73.77;94308.06;5494738;26;19997;-64
2024/04/19 03:31:47;;;;;;;4.47;3.53;;;;;;;2.45;73.94;94316.28;5494312;26;20088;-63
2024/04/19 03:34:13;;;;;;;10.55;6.57;;;;;;;2.21;75.46;94316.00;5514299;26;20012;-64
2024/04/19 03:36:39;;;;;;;6.38;4.50;;;;;;;2.41;75.38;94314.81;5515223;25;20016;-64
2024/04/19 03:39:05;;;;;;;6.35;4.28;;;;;;;2.58;75.17;94319.78;5526307;26;19997;-65
2024/04/19 03:41:33;;;;;;;5.82;4.55;;;;;;;2.55;74.96;94326.84;5526492;25;19998;-64
2024/04/19 03:46:45;;;;;;;4.55;3.20;;;;;;;2.78;74.72;94333.16;5499107;26;20003;-64
2024/04/19 03:49:10;;;;;;;4.85;3.50;;;;;;;2.81;74.48;94330.41;5526537;26;20459;-64
2024/04/19 03:51:35;;;;;;;4.78;3.38;;;;;;;2.71;74.56;94335.28;5462910;26;20002;-64
2024/04/19 03:54:02;;;;;;;4.88;3.58;;;;;;;2.56;75.18;94331.84;5489545;26;20468;-64
2024/04/19 03:56:27;;;;;;;6.93;3.83;;;;;;;2.40;75.29;94344.78;5457705;26;19997;-64
2024/04/19 03:58:53;;;;;;;4.97;3.75;;;;;;;2.29;75.93;94352.25;5489355;26;19990;-64
2024/04/19 04:01:18;;;;;;;5.63;4.13;;;;;;;2.18;77.44;94355.44;5488981;26;20074;-64
2024/04/19 04:03:44;;;;;;;5.50;3.95;;;;;;;2.43;76.56;94354.03;5489404;26;20013;-64
2024/04/19 04:06:09;;;;;;;5.22;3.90;;;;;;;2.36;76.70;94362.97;5486325;26;20008;-64
2024/04/19 04:08:34;;;;;;;6.53;5.20;;;;;;;2.47;76.40;94356.31;5526513;26;20037;-64
2024/04/19 04:11:00;;;;;;;7.90;5.30;;;;;;;2.63;76.25;94345.97;5504119;26;20088;-65
2024/04/19 04:13:27;;;;;;;7.85;7.07;;;;;;;2.81;75.91;94361.19;5491643;26;20008;-65
2024/04/19 04:15:52;;;;;;;8.02;6.60;;;;;;;2.84;76.34;94366.13;5492703;26;19989;-65
2024/04/19 04:18:18;;;;;;;8.98;7.57;;;;;;;2.86;75.46;94349.72;5492905;26;20431;-64
2024/04/19 04:20:43;;;;;;;9.23;8.15;;;;;;;2.99;75.36;94367.78;5492564;26;20037;-64
2024/04/19 04:23:09;;;;;;;9.30;8.10;;;;;;;3.04;75.75;94360.66;5493058;26;20001;-64
2024/04/19 04:25:37;;;;;;;7.65;6.28;;;;;;;3.19;75.35;94370.91;5493680;26;19989;-65
2024/04/19 04:28:03;;;;;;;7.07;6.32;;;;;;;3.29;75.07;94357.41;5522472;25;19989;-65
2024/04/19 04:30:29;;;;;;;9.40;7.00;;;;;;;3.30;75.47;94364.19;5403459;26;20420;-65
2024/04/19 04:32:54;;;;;;;14.43;10.30;;;;;;;3.20;76.37;94375.09;5514789;26;20042;-65
2024/04/19 04:35:20;;;;;;;12.52;8.52;;;;;;;3.38;75.95;94376.56;5477117;26;20006;-65
2024/04/19 04:37:45;;;;;;;18.02;12.30;;;;;;;3.16;75.59;94374.47;5487798;26;19993;-65
2024/04/19 04:40:31;;;;;;;39.17;22.95;;;;;;;3.04;75.66;94376.03;5527921;25;19990;-65
2024/04/19 04:42:57;;;;;;;123.07;80.85;;;;;;;3.00;75.89;94378.88;5525418;26;20009;-65
2024/04/19 04:45:23;;;;;;;15.70;10.60;;;;;;;3.27;75.50;94384.09;5493506;26;19989;-65
2024/04/19 04:47:48;;;;;;;11.10;7.68;;;;;;;3.58;74.80;94383.03;5461425;26;20029;-65
2024/04/19 04:50:14;;;;;;;13.40;7.65;;;;;;;3.58;74.93;94378.69;5493306;26;19997;-65
2024/04/19 04:52:39;;;;;;;9.38;7.15;;;;;;;4.62;74.32;94381.44;5517805;25;20491;-65
2024/04/19 04:55:05;;;;;;;8.48;7.35;;;;;;;5.30;68.87;94388.03;5503371;26;19997;-65
2024/04/19 04:57:30;;;;;;;10.30;7.05;;;;;;;6.06;65.55;94387.94;5492241;26;19989;-65
2024/04/19 04:59:56;;;;;;;8.55;5.88;;;;;;;7.34;61.39;94386.09;5492394;26;20316;-65
2024/04/19 05:02:21;;;;;;;6.93;5.80;;;;;;;8.88;56.45;94390.25;5522356;25;19998;-65
2024/04/19 05:04:47;;;;;;;7.28;5.70;;;;;;;9.48;53.78;94395.63;5490511;25;20031;-65
2024/04/19 05:07:12;;;;;;;6.82;5.60;;;;;;;8.89;55.97;94399.69;5507017;25;20022;-65
2024/04/19 05:09:38;;;;;;;7.88;4.97;;;;;;;9.46;54.77;94391.50;5522779;26;19993;-65
2024/04/19 05:12:03;;;;;;;5.85;4.18;;;;;;;8.82;55.05;94400.31;5462734;26;20058;-65
2024/04/19 05:14:29;;;;;;;6.07;4.45;;;;;;;7.86;56.31;94401.13;5491377;26;20024;-65
2024/04/19 05:16:54;;;;;;;5.35;4.22;;;;;;;7.21;58.89;94408.66;5492728;26;20335;-66
2024/04/19 05:19:20;;;;;;;5.32;3.92;;;;;;;6.97;59.74;94411.34;5525116;26;20065;-65
2024/04/19 05:21:46;;;;;;;6.72;4.85;;;;;;;6.60;60.30;94403.75;5491930;26;20015;-65
2024/04/19 05:24:11;;;;;;;5.28;4.30;;;;;;;6.31;61.74;94410.22;5462055;26;20396;-65
2024/04/19 05:26:36;;;;;;;6.55;4.53;;;;;;;6.41;61.12;94416.34;5508493;25;20465;-65
2024/04/19 05:29:02;;;;;;;4.93;4.30;;;;;;;6.93;59.55;94410.72;5524750;26;20316;-65
2024/04/19 05:31:28;;;;;;;5.32;4.50;;;;;;;7.03;60.26;94408.28;5493298;26;20384;-65
2024/04/19 05:33:53;;;;;;;6.40;4.75;;;;;;;6.34;62.09;94420.31;5514612;26;20023;-65
2024/04/19 05:36:19;;;;;;;6.32;4.13;;;;;;;6.93;59.70;94421.06;5528591;26;19989;-65
2024/04/19 05:38:45;;;;;;;5.50;3.65;;;;;;;6.84;59.62;94416.59;5519310;25;19999;-65
2024/04/19 05:41:10;;;;;;;5.30;4.53;;;;;;;6.63;60.60;94419.00;5537587;25;19993;-65
2024/04/19 05:43:36;;;;;;;7.15;4.07;;;;;;;6.58;59.82;94415.94;5527459;25;20412;-65
2024/04/19 05:46:01;;;;;;;8.20;4.07;;;;;;;6.72;59.81;94426.06;5493987;26;20439;-65
2024/04/19 05:48:26;;;;;;;5.22;4.50;;;;;;;6.61;60.37;94417.47;5491073;26;19998;-65
2024/04/19 05:50:52;;;;;;;8.90;5.07;;;;;;;6.11;62.73;94425.34;5490897;25;20091;-68
2024/04/19 05:53:17;;;;;;;7.30;5.07;;;;;;;5.90;62.92;94421.69;5507181;26;20487;-65
2024/04/19 05:55:43;;;;;;;6.68;4.70;;;;;;;5.76;63.57;94420.06;5495193;26;19998;-64
2024/04/19 05:58:09;;;;;;;6.63;5.05;;;;;;;6.16;62.51;94423.28;5434712;26;20001;-64
2024/04/19 06:00:34;;;;;;;8.75;5.47;;;;;;;5.78;61.85;94374.41;5463113;26;20009;-65
2024/04/19 06:03:00;;;;;;;6.20;4.85;;;;;;;6.07;63.26;94429.06;5505312;25;20466;-65
2024/04/19 06:05:25;;;;;;;7.00;5.35;;;;;;;6.23;63.37;94419.31;5528159;26;20037;-64
2024/04/19 06:07:51;;;;;;;7.63;5.93;;;;;;;5.96;63.56;94422.13;5522389;26;20106;-65
2024/04/19 06:10:16;;;;;;;8.23;5.70;;;;;;;6.24;62.65;94425.28;5449738;26;20019;-65
2024/04/19 06:12:42;;;;;;;6.32;5.50;;;;;;;6.14;63.70;94419.97;5455108;26;20002;-65
2024/04/19 06:15:07;;;;;;;8.05;6.60;;;;;;;5.98;64.00;94430.56;5489722;26;20533;-64
2024/04/19 06:17:33;;;;;;;8.05;5.85;;;;;;;5.97;64.13;94428.09;5490947;26;19997;-64
2024/04/19 06:19:59;;;;;;;13.25;6.65;;;;;;;6.03;64.50;94418.16;5490249;26;20000;-65
2024/04/19 06:22:24;;;;;;;8.23;6.80;;;;;;;6.06;64.62;94418.88;5461562;26;19989;-64
2024/04/19 06:24:50;;;;;;;9.70;6.70;;;;;;;6.11;64.88;94415.03;5492186;26;19992;-65
2024/04/19 06:27:15;;;;;;;8.50;7.60;;;;;;;6.40;64.01;94406.94;5524342;25;19997;-65
2024/04/19 06:29:40;;;;;;;9.60;6.55;;;;;;;6.44;65.95;94410.97;5526523;26;19986;-64
2024/04/19 06:32:06;;;;;;;8.77;6.93;;;;;;;6.33;64.66;94406.59;5526670;26;19985;-65
2024/04/19 06:34:31;;;;;;;8.40;6.70;;;;;;;6.85;62.58;94409.66;5495241;26;19989;-65
2024/04/19 06:36:57;;;;;;;10.27;6.15;;;;;;;6.98;62.26;94407.81;5525738;26;20492;-65
2024/04/19 06:39:25;;;;;;;9.20;6.47;;;;;;;7.08;62.17;94411.34;5526495;26;19993;-65
2024/04/19 06:41:51;;;;;;;9.82;7.13;;;;;;;6.72;63.73;94402.84;5465072;26;20448;-64
2024/04/19 06:44:17;;;;;;;8.82;6.95;;;;;;;6.91;62.62;94399.72;5526457;26;20004;-64
2024/04/19 06:46:42;;;;;;;11.45;6.95;;;;;;;7.11;62.73;94395.63;5457920;26;20461;-64
2024/04/19 06:49:07;;;;;;;9.68;6.75;;;;;;;7.51;60.17;94400.31;5491439;26;20002;-64
2024/04/19 06:51:33;;;;;;;8.15;6.45;;;;;;;7.46;61.10;94389.50;5527643;26;20005;-64
2024/04/19 06:53:58;;;;;;;12.95;8.15;;;;;;;7.39;61.62;94396.91;5495351;26;20009;-64
2024/04/19 06:56:23;;;;;;;11.45;7.55;;;;;;;7.41;61.36;94399.41;5527399;26;19994;-64
2024/04/19 06:58:49;;;;;;;8.55;7.28;;;;;;;7.69;59.66;94399.81;5494917;26;19993;-64
2024/04/19 07:01:15;;;;;;;9.05;7.05;;;;;;;7.74;59.74;94402.88;5494754;26;20362;-65
2024/04/19 07:03:40;;;;;;;9.38;6.85;;;;;;;8.03;59.00;94401.41;5527446;26;19989;-64
2024/04/19 07:06:12;;;;;;;10.73;6.88;;;;;;;8.03;58.65;94398.84;5527348;26;19985;-64
2024/04/19 07:08:38;;;;;;;8.73;6.43;;;;;;;8.29;58.73;94394.16;5527482;26;20439;-64
2024/04/19 07:11:04;;;;;;;9.32;7.18;;;;;;;8.44;57.98;94375.75;5494859;26;19993;-64
2024/04/19 07:13:29;;;;;;;11.05;8.05;;;;;;;8.37;58.27;94377.19;5464543;26;20084;-64
2024/04/19 07:15:55;;;;;;;9.20;8.00;;;;;;;8.62;57.66;94384.63;5494667;26;20331;-64
2024/04/19 07:18:24;;;;;;;11.35;7.18;;;;;;;8.70;55.85;94382.25;5495021;26;20431;-64
2024/04/19 07:20:52;;;;;;;10.60;7.72;;;;;;;8.78;56.13;94385.97;5495622;26;20062;-64
2024/04/19 07:23:18;;;;;;;10.30;7.18;;;;;;;8.53;56.26;94353.50;5523907;26;20005;-64
2024/04/19 07:25:44;;;;;;;9.25;6.93;;;;;;;8.55;57.23;94383.47;5431245;26;20061;-65
2024/04/19 07:28:09;;;;;;;7.80;6.82;;;;;;;8.62;55.05;94389.00;5494350;26;20431;-64
2024/04/19 07:30:35;;;;;;;9.50;6.25;;;;;;;9.11;52.91;94384.91;5494066;26;20065;-64
2024/04/19 07:33:01;;;;;;;7.88;6.72;;;;;;;8.95;54.86;94380.22;5526472;25;20058;-64
2024/04/19 07:35:26;;;;;;;10.20;7.13;;;;;;;8.78;54.57;94386.78;5494136;26;20402;-65
2024/04/19 07:37:51;;;;;;;8.48;6.43;;;;;;;8.98;53.72;94381.72;5493979;26;20008;-64
2024/04/19 07:40:17;;;;;;;9.85;8.18;;;;;;;8.87;54.11;94373.06;5494535;26;20004;-64
2024/04/19 07:42:42;;;;;;;10.48;6.57;;;;;;;9.18;52.76;94381.69;5526332;25;20579;-64
2024/04/19 07:45:08;;;;;;;12.40;6.85;;;;;;;8.86;52.81;94375.78;5526511;26;19997;-64
2024/04/19 07:47:33;;;;;;;10.45;7.05;;;;;;;9.03;51.37;94371.81;5463703;26;19997;-64
2024/04/19 07:49:59;;;;;;;9.55;6.18;;;;;;;9.12;52.38;94365.84;5494118;26;20005;-64
2024/04/19 07:52:24;;;;;;;5.57;4.00;;;;;;;9.11;50.41;94367.63;5525273;25;20017;-64
2024/04/19 07:54:50;;;;;;;7.57;5.88;;;;;;;8.99;51.47;94375.59;5463415;26;20005;-64
2024/04/19 07:57:15;;;;;;;8.02;4.75;;;;;;;9.36;51.00;94363.78;5526613;25;20001;-65
2024/04/19 07:59:41;;;;;;;6.53;5.57;;;;;;;9.34;49.12;94328.56;5534264;25;20348;-64
2024/04/19 08:02:06;;;;;;;5.75;5.00;;;;;;;9.40;49.11;94362.56;5512475;25;20049;-64
2024/04/19 08:04:31;;;;;;;5.57;4.13;;;;;;;9.58;47.90;94356.72;5526007;26;19993;-66
2024/04/19 08:06:57;;;;;;;5.90;3.75;;;;;;;9.73;45.85;94359.81;5500515;26;20503;-64
2024/04/19 08:09:22;;;;;;;6.40;5.10;;;;;;;9.53;47.84;94359.75;5490327;26;20024;-64
2024/04/19 08:11:49;;;;;;;6.78;5.22;;;;;;;10.04;47.14;94347.56;5522299;25;20085;-64
2024/04/19 08:14:14;;;;;;;6.90;5.28;;;;;;;9.66;47.64;94346.53;5524278;25;20038;-62
2024/04/19 08:16:40;;;;;;;5.45;4.13;;;;;;;9.74;47.22;94354.47;5526341;25;19998;-62
2024/04/19 08:19:05;;;;;;;6.78;4.80;;;;;;;10.12;46.36;94349.50;5522254;25;20053;-61
2024/04/19 08:21:31;;;;;;;5.43;4.25;;;;;;;9.87;46.29;94345.63;5525041;25;20013;-61
2024/04/19 08:23:56;;;;;;;6.75;4.97;;;;;;;10.52;45.16;94344.19;5519134;26;20016;-62
2024/04/19 08:26:21;;;;;;;9.20;6.40;;;;;;;10.39;46.11;94341.03;5493509;26;20000;-62
2024/04/19 08:28:47;;;;;;;8.05;4.72;;;;;;;10.49;46.57;94342.66;5487578;26;20006;-63
2024/04/19 08:31:13;;;;;;;8.73;5.57;;;;;;;10.13;46.63;94343.34;5457271;26;19998;-61
2024/04/19 08:33:38;;;;;;;6.60;5.43;;;;;;;10.03;46.24;94325.16;5456964;26;20018;-61
2024/04/19 08:36:05;;;;;;;6.90;5.40;;;;;;;10.35;46.48;94339.69;5487112;26;20005;-61
2024/04/19 08:38:31;;;;;;;7.25;4.40;;;;;;;10.68;43.63;94333.22;5488820;26;20062;-63
2024/04/19 08:41:03;;;;;;;7.90;5.43;;;;;;;10.76;45.36;94332.53;5489337;26;19990;-61
2024/04/19 08:43:30;;;;;;;8.35;4.63;;;;;;;10.56;43.90;94332.56;5472961;26;20021;-63
2024/04/19 08:45:57;;;;;;;4.72;3.60;;;;;;;10.80;42.57;94326.91;5525733;25;20075;-61
2024/04/19 08:48:22;;;;;;;5.90;3.70;;;;;;;11.05;42.17;94330.66;5457179;25;20403;-61
2024/04/19 08:50:47;;;;;;;4.93;3.88;;;;;;;11.19;41.39;94334.59;5484118;26;20044;-61
2024/04/19 08:53:13;;;;;;;7.82;5.63;;;;;;;10.90;42.15;94326.91;5492989;26;20463;-62
2024/04/19 08:55:38;;;;;;;6.78;4.97;;;;;;;10.72;41.61;94329.38;5494522;25;20000;-61
2024/04/19 08:58:04;;;;;;;5.80;3.90;;;;;;;11.04;40.50;94331.66;5502341;25;19994;-63
2024/04/19 09:00:29;;;;;;;4.43;3.25;;;;;;;10.95;39.84;94319.50;5463483;26;20001;-61
2024/04/19 09:02:55;;;;;;;5.00;3.67;;;;;;;10.69;41.20;94316.69;5466688;26;20003;-61
2024/04/19 09:05:20;;;;;;;4.80;3.30;;;;;;;10.95;39.47;94316.91;5525134;26;20001;-61
2024/04/19 09:07:46;;;;;;;5.05;3.92;;;;;;;10.85;41.77;94323.91;5510636;25;20004;-63
2024/04/19 09:10:13;;;;;;;6.80;4.57;;;;;;;10.34;41.23;94328.47;5486834;26;19991;-61
2024/04/19 09:12:38;;;;;;;7.30;4.10;;;;;;;10.56;42.09;94319.59;5488460;26;20012;-64
2024/04/19 09:15:04;;;;;;;8.02;3.60;;;;;;;10.52;41.41;94323.41;5488398;26;20059;-61
2024/04/19 09:17:29;;;;;;;5.15;3.63;;;;;;;10.77;40.41;94303.00;5518786;25;20440;-61
2024/04/19 09:19:56;;;;;;;4.60;3.33;;;;;;;10.89;39.21;94320.88;5460668;26;20013;-63
2024/04/19 09:22:22;;;;;;;5.32;3.63;;;;;;;11.03;37.81;94309.22;5477005;26;19996;-61
2024/04/19 09:24:52;;;;;;;4.72;2.90;;;;;;;11.15;39.36;94302.88;5523341;26;19994;-62
2024/04/19 09:27:18;;;;;;;5.18;3.45;;;;;;;11.12;37.00;94299.75;5523417;25;19986;-61
2024/04/19 09:29:43;;;;;;;56.17;26.63;;;;;;;11.12;38.22;94307.53;5492588;26;20356;-63
2024/04/19 09:32:09;;;;;;;5.35;3.45;;;;;;;11.07;37.12;94307.97;5420029;26;20440;-62
2024/04/19 09:34:34;;;;;;;6.60;3.08;;;;;;;11.11;36.73;94300.69;5501857;25;20005;-63
2024/04/19 09:37:00;;;;;;;5.30;3.00;;;;;;;11.29;36.18;94301.59;5519287;25;20048;-64
2024/04/19 09:39:25;;;;;;;4.10;2.78;;;;;;;11.18;36.50;94265.38;5538091;25;20043;-64
2024/04/19 09:41:51;;;;;;;5.47;3.42;;;;;;;11.04;38.25;94284.03;5468125;26;20519;-63
2024/04/19 09:44:16;;;;;;;5.43;3.15;;;;;;;10.52;36.84;94287.84;5455739;26;20339;-63
2024/04/19 09:46:45;;;;;;;5.93;2.95;;;;;;;10.88;35.80;94284.63;5461204;25;20019;-64
2024/04/19 09:49:10;;;;;;;4.15;2.78;;;;;;;11.17;37.81;94274.13;5454795;26;20001;-64
2024/04/19 09:51:45;;;;;;;4.85;2.72;;;;;;;11.54;35.44;94281.88;5446881;26;20362;-64
2024/04/19 09:54:11;;;;;;;4.30;3.08;;;;;;;11.76;35.38;94277.25;5503568;26;20009;-64
2024/04/19 09:56:43;;;;;;;4.20;2.80;;;;;;;11.66;35.41;94266.88;5510291;25;20448;-64
2024/04/19 09:59:09;;;;;;;5.07;3.10;;;;;;;11.75;35.02;94273.00;5453486;26;20523;-63
2024/04/19 10:01:37;;;;;;;8.18;3.15;;;;;;;11.45;36.03;94269.75;5456588;26;21788;-64
2024/04/19 10:04:08;;;;;;;5.03;2.70;;;;;;;11.02;35.37;94276.38;5519315;26;20328;-63
2024/04/19 10:06:36;;;;;;;6.35;3.20;;;;;;;11.26;35.50;94269.88;5486385;26;20324;-63
2024/04/19 10:09:04;;;;;;;3.90;2.83;;;;;;;11.59;35.20;94268.47;5488463;26;19997;-64
2024/04/19 10:11:29;;;;;;;4.88;3.13;;;;;;;11.42;36.28;94231.03;5459994;26;20009;-64
2024/04/19 10:13:54;;;;;;;4.95;3.25;;;;;;;12.03;35.55;94251.16;5471837;26;20336;-64
2024/04/19 10:16:20;;;;;;;4.32;3.15;;;;;;;12.02;33.60;94246.94;5487543;26;19994;-62
2024/04/19 10:18:45;;;;;;;3.78;2.72;;;;;;;12.48;33.38;94249.41;5521675;26;20424;-63
2024/04/19 10:21:11;;;;;;;7.60;3.80;;;;;;;12.43;33.22;94256.88;5492729;25;19993;-62
2024/04/19 10:23:37;;;;;;;4.80;3.25;;;;;;;12.27;33.43;94240.13;5523661;26;19993;-62
2024/04/19 10:26:03;;;;;;;4.85;2.80;;;;;;;11.94;33.77;94256.47;5486250;25;20317;-61
2024/04/19 10:28:29;;;;;;;5.13;3.55;;;;;;;11.85;34.50;94245.97;5492443;26;20012;-62
2024/04/19 10:30:55;;;;;;;6.90;3.47;;;;;;;12.22;33.41;94246.78;5460205;25;20012;-61
2024/04/19 10:33:20;;;;;;;4.20;3.05;;;;;;;12.50;31.97;94240.47;5525103;26;20025;-63
2024/04/19 10:35:46;;;;;;;5.32;3.30;;;;;;;12.47;32.73;94232.13;5516731;26;20001;-61
2024/04/19 10:38:12;;;;;;;5.57;3.30;;;;;;;12.88;33.18;94235.81;5480356;26;20002;-64
2024/04/19 10:40:37;;;;;;;5.15;3.35;;;;;;;12.93;32.17;94230.16;5486485;26;19999;-64
2024/04/19 10:43:04;;;;;;;6.43;3.55;;;;;;;12.90;31.44;94223.44;5486136;26;20009;-63
2024/04/19 10:45:32;;;;;;;4.65;3.30;;;;;;;12.62;31.07;94185.50;5450765;26;20009;-64
2024/04/19 10:47:58;;;;;;;5.95;3.55;;;;;;;12.87;30.93;94220.31;5483666;26;20074;-63
2024/04/19 10:50:24;;;;;;;7.95;3.42;;;;;;;12.89;30.85;94215.78;5426408;26;20002;-61
2024/04/19 10:52:53;;;;;;;6.72;4.13;;;;;;;13.15;30.95;94213.13;5484800;26;20077;-63
2024/04/19 10:55:18;;;;;;;5.82;4.03;;;;;;;13.19;32.12;94212.66;5482612;26;20458;-62
2024/04/19 10:57:43;;;;;;;6.03;4.15;;;;;;;12.93;33.58;94194.47;5453798;26;19999;-63
2024/04/19 11:00:10;;;;;;;12.02;4.40;;;;;;;12.65;34.80;94206.06;5454437;26;20521;-62
2024/04/19 11:02:35;;;;;;;7.75;4.22;;;;;;;12.62;33.19;94201.13;5496988;25;20032;-63
2024/04/19 11:05:02;;;;;;;6.38;3.95;;;;;;;12.95;34.34;94192.53;5479502;26;20554;-63
2024/04/19 11:07:27;;;;;;;10.02;4.20;;;;;;;12.81;33.15;94203.50;5486791;25;20057;-63
2024/04/19 11:09:53;;;;;;;5.60;4.05;;;;;;;12.58;35.17;94195.41;5531546;25;20009;-64
2024/04/19 11:12:18;;;;;;;8.32;4.00;;;;;;;12.34;34.14;94203.91;5426149;26;19998;-63
2024/04/19 11:14:44;;;;;;;6.40;4.07;;;;;;;12.02;34.47;94194.88;5480910;26;20528;-63
2024/04/19 11:17:09;;;;;;;11.27;3.95;;;;;;;12.04;35.85;94195.53;5490281;26;20030;-63
2024/04/19 11:19:34;;;;;;;5.13;3.80;;;;;;;11.95;35.18;94191.25;5491483;25;20013;-63
2024/04/19 11:22:00;;;;;;;6.28;3.90;;;;;;;11.88;35.54;94185.00;5489370;26;20001;-63
2024/04/19 11:24:26;;;;;;;8.38;4.50;;;;;;;12.20;35.15;94183.59;5496945;26;19994;-63
2024/04/19 11:26:51;;;;;;;8.25;4.10;;;;;;;12.35;34.67;94182.09;5478152;26;20049;-61
2024/04/19 11:29:18;;;;;;;11.77;4.85;;;;;;;12.45;34.04;94180.22;5480524;26;20432;-63
2024/04/19 11:31:45;;;;;;;7.45;4.30;;;;;;;12.43;34.08;94176.94;5486258;26;20367;-63
2024/04/19 11:34:11;;;;;;;5.82;4.20;;;;;;;12.57;33.96;94175.56;5449921;26;19991;-64
2024/04/19 11:36:36;;;;;;;9.50;4.50;;;;;;;12.68;33.13;94182.28;5478448;26;20025;-62
2024/04/19 11:39:02;;;;;;;6.93;4.38;;;;;;;12.81;32.41;94171.41;5519609;25;20385;-64